Time,TemperatureF,DewpointF,PressureIn,WindDirection,WindDirectionDegrees,WindSpeedMPH,WindSpeedGustMPH,Humidity,HourlyPrecipIn,Conditions,Clouds,dailyrainin,SoftwareType,DateUTC
2013-02-07 00:09:00,26.6,20.0,30.02,NNW,337,0.0,0.0,76,0.00,,,0.00,open2300-1.11,2013-02-07 06:09:00,
2013-02-07 00:17:00,26.6,20.0,30.02,NNW,337,0.0,0.0,76,0.00,,,0.00,open2300-1.11,2013-02-07 06:17:00,
2013-02-07 00:27:00,26.6,20.0,30.02,NNW,337,0.0,0.0,76,0.00,,,0.00,open2300-1.11,2013-02-07 06:27:00,
2013-02-07 00:37:00,26.6,20.0,30.02,NNW,337,0.0,0.0,76,0.00,,,0.00,open2300-1.11,2013-02-07 06:37:00,
2013-02-07 00:47:00,26.6,20.0,30.02,NNW,337,0.0,0.0,76,0.00,,,0.00,open2300-1.11,2013-02-07 06:47:00,
2013-02-07 00:57:00,26.8,20.2,30.01,NNW,337,0.0,0.0,76,0.00,,,0.00,open2300-1.11,2013-02-07 06:57:00,
2013-02-07 01:07:00,26.8,20.2,30.01,NNW,337,0.0,0.0,76,0.00,,,0.00,open2300-1.11,2013-02-07 07:07:00,
2013-02-07 01:17:00,26.8,20.2,30.01,NNW,337,0.0,0.0,76,0.00,,,0.00,open2300-1.11,2013-02-07 07:17:00,
2013-02-07 01:27:00,26.8,20.2,30.01,NNW,337,0.0,0.0,76,0.00,,,0.00,open2300-1.11,2013-02-07 07:27:00,
2013-02-07 01:37:00,26.8,20.2,30.01,NNW,337,0.0,0.0,76,0.00,,,0.00,open2300-1.11,2013-02-07 07:37:00,
2013-02-07 01:47:00,26.8,20.2,30.01,NNW,337,0.0,0.0,76,0.00,,,0.00,open2300-1.11,2013-02-07 07:47:00,
2013-02-07 01:57:00,26.6,20.0,30.01,NNW,337,0.0,0.0,76,0.00,,,0.00,open2300-1.11,2013-02-07 07:57:00,
2013-02-07 02:07:00,26.4,19.8,30.02,NNW,337,0.0,0.0,76,0.00,,,0.00,open2300-1.11,2013-02-07 08:07:00,
2013-02-07 02:17:00,26.4,19.8,30.02,NNW,337,0.0,0.0,76,0.00,,,0.00,open2300-1.11,2013-02-07 08:17:00,
2013-02-07 02:27:00,26.4,19.8,30.02,NNW,337,0.0,0.0,76,0.00,,,0.00,open2300-1.11,2013-02-07 08:27:00,
2013-02-07 02:37:00,26.4,19.8,30.02,NNW,337,0.0,0.0,76,0.00,,,0.00,open2300-1.11,2013-02-07 08:37:00,
2013-02-07 02:47:00,26.6,20.3,30.02,NNW,337,0.0,0.0,77,0.00,,,0.00,open2300-1.11,2013-02-07 08:47:00,
2013-02-07 02:57:00,26.6,20.3,30.02,NNW,337,0.0,0.0,77,0.00,,,0.00,open2300-1.11,2013-02-07 08:57:00,
2013-02-07 03:07:00,26.8,20.5,30.01,NNW,337,0.0,0.0,77,0.00,,,0.00,open2300-1.11,2013-02-07 09:07:00,
2013-02-07 03:17:00,26.8,20.5,30.01,NNW,337,0.0,0.0,77,0.00,,,0.00,open2300-1.11,2013-02-07 09:17:00,
2013-02-07 03:27:00,26.8,20.5,30.01,NNW,337,0.0,0.0,77,0.00,,,0.00,open2300-1.11,2013-02-07 09:27:00,
2013-02-07 03:37:00,26.8,20.5,30.01,NNW,337,0.0,0.0,77,0.00,,,0.00,open2300-1.11,2013-02-07 09:37:00,
2013-02-07 03:47:00,26.8,20.5,30.01,NNW,337,0.0,0.0,77,0.00,,,0.00,open2300-1.11,2013-02-07 09:47:00,
2013-02-07 03:57:00,26.8,20.5,30.01,NNW,337,0.0,0.0,77,0.00,,,0.00,open2300-1.11,2013-02-07 09:57:00,
2013-02-07 04:07:00,26.8,20.5,30.01,NNW,337,0.0,0.0,77,0.00,,,0.00,open2300-1.11,2013-02-07 10:07:00,
2013-02-07 04:17:00,26.8,20.5,30.00,NNW,337,0.0,0.0,77,0.00,,,0.00,open2300-1.11,2013-02-07 10:17:00,
2013-02-07 04:27:00,26.6,20.3,30.01,NNW,337,0.0,0.0,77,0.00,,,0.00,open2300-1.11,2013-02-07 10:27:00,
2013-02-07 04:37:00,26.8,20.5,30.01,NNW,337,0.0,0.0,77,0.00,,,0.00,open2300-1.11,2013-02-07 10:37:00,
2013-02-07 04:47:00,26.8,20.5,30.00,NNW,337,0.0,0.0,77,0.00,,,0.00,open2300-1.11,2013-02-07 10:47:00,
2013-02-07 04:57:00,26.8,20.5,30.00,NNW,337,0.0,0.0,77,0.00,,,0.00,open2300-1.11,2013-02-07 10:57:00,
2013-02-07 05:07:00,26.8,20.5,30.01,NNW,337,0.0,0.0,77,0.00,,,0.00,open2300-1.11,2013-02-07 11:07:00,
2013-02-07 05:17:00,26.8,20.5,30.01,NNW,337,0.0,0.0,77,0.00,,,0.00,open2300-1.11,2013-02-07 11:17:00,
2013-02-07 05:27:00,26.6,20.3,30.01,NNW,337,0.0,0.0,77,0.00,,,0.00,open2300-1.11,2013-02-07 11:27:00,
2013-02-07 05:37:00,26.4,20.1,30.00,NNW,337,0.0,0.0,77,0.00,,,0.00,open2300-1.11,2013-02-07 11:37:00,
2013-02-07 05:47:00,26.4,20.1,30.01,NNW,337,0.0,0.0,77,0.00,,,0.00,open2300-1.11,2013-02-07 11:47:00,
2013-02-07 05:57:00,26.4,20.1,30.01,NNW,337,0.0,0.0,77,0.00,,,0.00,open2300-1.11,2013-02-07 11:57:00,
2013-02-07 06:07:00,26.2,19.9,30.01,NNW,337,0.0,0.0,77,0.00,,,0.00,open2300-1.11,2013-02-07 12:07:00,
2013-02-07 06:17:00,26.4,20.1,30.02,NNW,337,0.0,0.0,77,0.00,,,0.00,open2300-1.11,2013-02-07 12:17:00,
2013-02-07 06:24:00,26.2,20.2,30.02,NNW,337,0.0,0.0,78,0.00,,,0.00,open2300-1.11,2013-02-07 12:24:00,
2013-02-07 06:37:00,26.2,20.2,30.02,NNW,337,0.0,0.0,78,0.00,,,0.00,open2300-1.11,2013-02-07 12:37:00,
2013-02-07 06:47:00,26.2,20.2,30.02,NNW,337,0.0,0.0,78,0.00,,,0.00,open2300-1.11,2013-02-07 12:47:00,
2013-02-07 06:57:00,26.2,20.2,30.02,NNW,337,0.0,0.0,78,0.00,,,0.00,open2300-1.11,2013-02-07 12:57:00,
2013-02-07 07:07:00,177.4,99.9,30.02,NNW,337,0.0,0.0,100,0.00,,,0.00,open2300-1.11,2013-02-07 13:07:00,
2013-02-07 07:17:00,177.4,99.9,30.02,NNW,337,0.0,0.0,100,0.00,,,0.00,open2300-1.11,2013-02-07 13:17:00,
2013-02-07 07:27:00,177.4,99.9,30.03,NNW,337,0.0,0.0,100,0.00,,,0.00,open2300-1.11,2013-02-07 13:27:00,
2013-02-07 07:37:00,177.4,99.9,30.03,NNW,337,0.0,0.0,100,0.00,,,0.00,open2300-1.11,2013-02-07 13:37:00,
2013-02-07 07:47:00,25.9,20.2,30.03,NNW,337,0.0,0.0,79,0.00,,,0.00,open2300-1.11,2013-02-07 13:47:00,
2013-02-07 07:57:00,26.1,20.4,30.03,NNW,337,0.0,0.0,79,0.00,,,0.00,open2300-1.11,2013-02-07 13:57:00,
2013-02-07 08:07:00,26.1,20.4,30.04,NNW,337,0.0,0.0,79,0.00,,,0.00,open2300-1.11,2013-02-07 14:07:00,
2013-02-07 08:17:00,26.1,20.4,30.03,NNW,337,0.0,0.0,79,0.00,,,0.00,open2300-1.11,2013-02-07 14:17:00,
2013-02-07 08:27:00,26.1,20.4,30.04,NNW,337,0.0,0.0,79,0.00,,,0.00,open2300-1.11,2013-02-07 14:27:00,
2013-02-07 08:37:00,26.1,20.4,30.04,NNW,337,0.0,0.0,79,0.00,,,0.00,open2300-1.11,2013-02-07 14:37:00,
2013-02-07 08:47:00,26.1,20.4,30.04,NNW,337,0.0,0.0,79,0.00,,,0.00,open2300-1.11,2013-02-07 14:47:00,
2013-02-07 08:57:00,177.3,99.9,30.05,NNW,337,0.0,0.0,100,0.00,,,0.00,open2300-1.11,2013-02-07 14:57:00,
2013-02-07 09:07:00,177.3,99.9,30.05,NNW,337,0.0,0.0,100,0.00,,,0.00,open2300-1.11,2013-02-07 15:07:00,
2013-02-07 09:17:00,177.3,99.9,30.05,NNW,337,0.0,0.0,100,0.00,,,0.00,open2300-1.11,2013-02-07 15:17:00,
2013-02-07 09:28:00,177.3,99.9,30.06,NNW,337,0.0,0.0,100,0.00,,,0.00,open2300-1.11,2013-02-07 15:28:00,
2013-02-07 09:37:00,177.3,99.9,30.07,NNW,337,0.0,0.0,100,0.00,,,0.00,open2300-1.11,2013-02-07 15:37:00,
2013-02-07 09:47:00,177.3,99.9,30.07,NNW,337,0.0,0.0,100,0.00,,,0.00,open2300-1.11,2013-02-07 15:47:00,
2013-02-07 09:57:00,177.3,99.9,30.07,NNW,337,0.0,0.0,100,0.00,,,0.00,open2300-1.11,2013-02-07 15:57:00,
2013-02-07 10:07:00,177.3,99.9,30.07,NNW,337,0.0,0.0,100,0.00,,,0.00,open2300-1.11,2013-02-07 16:07:00,
2013-02-07 10:17:00,177.3,99.9,30.07,NNW,337,0.0,0.0,100,0.00,,,0.00,open2300-1.11,2013-02-07 16:17:00,
2013-02-07 10:27:00,26.6,20.9,30.07,NNW,337,0.0,0.0,79,0.00,,,0.00,open2300-1.11,2013-02-07 16:27:00,
2013-02-07 10:37:00,26.6,20.9,30.07,NNW,337,0.0,0.0,79,0.00,,,0.00,open2300-1.11,2013-02-07 16:37:00,
2013-02-07 10:47:00,26.8,21.1,30.06,NNW,337,0.0,0.0,79,0.00,,,0.00,open2300-1.11,2013-02-07 16:47:00,
2013-02-07 10:57:00,26.8,21.1,30.06,NNW,337,0.0,0.0,79,0.00,,,0.00,open2300-1.11,2013-02-07 16:57:00,
2013-02-07 11:07:00,176.2,99.9,30.07,NNW,337,0.0,0.0,100,0.00,,,0.00,open2300-1.11,2013-02-07 17:07:00,
2013-02-07 11:17:00,176.2,99.9,30.06,NNW,337,0.0,0.0,100,0.00,,,0.00,open2300-1.11,2013-02-07 17:17:00,
2013-02-07 11:27:00,176.2,99.9,30.06,NNW,337,0.0,0.0,100,0.00,,,0.00,open2300-1.11,2013-02-07 17:27:00,
2013-02-07 11:37:00,176.2,99.9,30.06,NNW,337,0.0,0.0,100,0.00,,,0.00,open2300-1.11,2013-02-07 17:37:00,
2013-02-07 11:47:00,26.6,20.9,30.05,NNW,337,0.0,0.0,79,0.00,,,0.00,open2300-1.11,2013-02-07 17:47:00,
2013-02-07 11:57:00,26.8,21.1,30.05,NNW,337,0.0,0.0,79,0.00,,,0.00,open2300-1.11,2013-02-07 17:57:00,
2013-02-07 12:07:00,26.8,21.1,30.05,NNW,337,0.0,0.0,79,0.00,,,0.00,open2300-1.11,2013-02-07 18:07:00,
2013-02-07 12:17:00,27.1,21.4,30.05,NNW,337,0.0,0.0,79,0.00,,,0.00,open2300-1.11,2013-02-07 18:17:00,
2013-02-07 12:27:00,27.1,21.4,30.05,NNW,337,0.0,0.0,79,0.00,,,0.00,open2300-1.11,2013-02-07 18:27:00,
2013-02-07 12:37:00,176.5,99.9,30.05,NNW,337,0.0,0.0,100,0.00,,,0.00,open2300-1.11,2013-02-07 18:37:00,
2013-02-07 12:47:00,176.5,99.9,30.05,NNW,337,0.0,0.0,100,0.00,,,0.00,open2300-1.11,2013-02-07 18:47:00,
2013-02-07 13:07:00,27.3,21.3,30.05,NNW,337,0.0,0.0,78,0.00,,,0.00,open2300-1.11,2013-02-07 19:07:00,
2013-02-07 13:17:00,27.3,21.3,30.05,NNW,337,0.0,0.0,78,0.00,,,0.00,open2300-1.11,2013-02-07 19:17:00,
2013-02-07 13:27:00,27.3,21.3,30.05,NNW,337,0.0,0.0,78,0.00,,,0.00,open2300-1.11,2013-02-07 19:27:00,
2013-02-07 13:37:00,27.3,21.3,30.05,NNW,337,0.0,0.0,78,0.00,,,0.00,open2300-1.11,2013-02-07 19:37:00,
2013-02-07 13:47:00,27.3,21.3,30.05,NNW,337,0.0,0.0,78,0.00,,,0.00,open2300-1.11,2013-02-07 19:47:00,
2013-02-07 13:57:00,27.1,21.1,30.05,NNW,337,0.0,0.0,78,0.00,,,0.00,open2300-1.11,2013-02-07 19:57:00,
2013-02-07 14:07:00,27.1,21.1,30.05,NNW,337,0.0,0.0,78,0.00,,,0.00,open2300-1.11,2013-02-07 20:07:00,
2013-02-07 14:17:00,176.5,99.9,30.05,NNW,337,0.0,0.0,100,0.00,,,0.00,open2300-1.11,2013-02-07 20:17:00,
2013-02-07 14:27:00,176.5,99.9,30.05,NNW,337,0.0,0.0,100,0.00,,,0.00,open2300-1.11,2013-02-07 20:27:00,
2013-02-07 14:37:00,26.8,20.5,30.05,NNW,337,0.0,0.0,77,0.00,,,0.00,open2300-1.11,2013-02-07 20:37:00,
2013-02-07 14:47:00,26.8,20.5,30.05,NNW,337,0.0,0.0,77,0.00,,,0.00,open2300-1.11,2013-02-07 20:47:00,
2013-02-07 14:58:00,176.2,99.9,30.06,NNW,337,0.0,0.0,100,0.00,,,0.00,open2300-1.11,2013-02-07 20:58:00,
2013-02-07 15:07:00,176.2,99.9,30.06,NNW,337,0.0,0.0,100,0.00,,,0.00,open2300-1.11,2013-02-07 21:07:00,
2013-02-07 15:17:00,176.2,99.9,30.06,NNW,337,0.0,0.0,100,0.00,,,0.00,open2300-1.11,2013-02-07 21:17:00,
2013-02-07 15:27:00,176.2,99.9,30.06,NNW,337,0.0,0.0,100,0.00,,,0.00,open2300-1.11,2013-02-07 21:27:00,
2013-02-07 15:37:00,176.2,99.9,30.06,NNW,337,0.0,0.0,100,0.00,,,0.00,open2300-1.11,2013-02-07 21:37:00,
2013-02-07 15:47:00,176.2,99.9,30.06,NNW,337,0.0,0.0,100,0.00,,,0.00,open2300-1.11,2013-02-07 21:47:00,
2013-02-07 15:57:00,176.2,99.9,30.06,NNW,337,0.0,0.0,100,0.00,,,0.00,open2300-1.11,2013-02-07 21:57:00,
2013-02-07 16:07:00,176.2,99.9,30.06,NNW,337,0.0,0.0,100,0.00,,,0.00,open2300-1.11,2013-02-07 22:07:00,
2013-02-07 16:17:00,176.2,99.9,30.06,NNW,337,0.0,0.0,100,0.00,,,0.00,open2300-1.11,2013-02-07 22:17:00,
2013-02-07 16:28:00,176.2,99.9,30.06,NNW,337,0.0,0.0,100,0.00,,,0.00,open2300-1.11,2013-02-07 22:28:00,
2013-02-07 16:37:00,176.2,99.9,30.07,NNW,337,0.0,0.0,100,0.00,,,0.00,open2300-1.11,2013-02-07 22:37:00,
2013-02-07 16:47:00,176.2,99.9,30.08,NNW,337,0.0,0.0,100,0.00,,,0.00,open2300-1.11,2013-02-07 22:47:00,
2013-02-07 16:57:00,176.2,99.9,30.09,NNW,337,0.0,0.0,100,0.00,,,0.00,open2300-1.11,2013-02-07 22:57:00,
2013-02-07 17:07:00,26.2,20.2,30.09,NNW,337,0.0,0.0,78,0.00,,,0.00,open2300-1.11,2013-02-07 23:07:00,
2013-02-07 17:17:00,26.2,20.2,30.09,NNW,337,0.0,0.0,78,0.00,,,0.00,open2300-1.11,2013-02-07 23:17:00,
2013-02-07 17:27:00,26.2,20.2,30.10,NNW,337,0.0,0.0,78,0.00,,,0.00,open2300-1.11,2013-02-07 23:27:00,
2013-02-07 17:37:00,26.2,20.2,30.10,NNW,337,0.0,0.0,78,0.00,,,0.00,open2300-1.11,2013-02-07 23:37:00,
2013-02-07 17:47:00,26.2,20.2,30.11,NNW,337,0.0,0.0,78,0.00,,,0.00,open2300-1.11,2013-02-07 23:47:00,
2013-02-07 17:57:00,26.1,20.1,30.11,NNW,337,0.0,0.0,78,0.00,,,0.00,open2300-1.11,2013-02-07 23:57:00,
2013-02-07 18:07:00,26.1,20.1,30.12,NNW,337,0.0,0.0,78,0.00,,,0.00,open2300-1.11,2013-02-08 00:07:00,
2013-02-07 18:17:00,26.1,20.1,30.13,NNW,337,0.0,0.0,78,0.00,,,0.00,open2300-1.11,2013-02-08 00:17:00,
2013-02-07 18:27:00,26.1,20.1,30.13,NNW,337,0.0,0.0,78,0.00,,,0.00,open2300-1.11,2013-02-08 00:27:00,
2013-02-07 18:37:00,177.3,99.9,30.13,NNW,337,0.0,0.0,100,0.00,,,0.00,open2300-1.11,2013-02-08 00:37:00,
2013-02-07 18:47:00,177.3,99.9,30.14,NNW,337,0.0,0.0,100,0.00,,,0.00,open2300-1.11,2013-02-08 00:47:00,
2013-02-07 18:57:00,26.1,19.8,30.14,NNW,337,0.0,0.0,77,0.00,,,0.00,open2300-1.11,2013-02-08 00:57:00,
2013-02-07 19:07:00,26.1,19.8,30.15,NNW,337,0.0,0.0,77,0.00,,,0.00,open2300-1.11,2013-02-08 01:07:00,
2013-02-07 19:17:00,26.1,19.8,30.15,NNW,337,0.0,0.0,77,0.00,,,0.00,open2300-1.11,2013-02-08 01:17:00,
2013-02-07 19:27:00,25.9,19.6,30.15,NNW,337,0.0,0.0,77,0.00,,,0.00,open2300-1.11,2013-02-08 01:27:00,
2013-02-07 19:37:00,25.9,19.6,30.14,NNW,337,0.0,0.0,77,0.00,,,0.00,open2300-1.11,2013-02-08 01:37:00,
2013-02-07 19:47:00,25.9,19.6,30.14,NNW,337,0.0,0.0,77,0.00,,,0.00,open2300-1.11,2013-02-08 01:47:00,
2013-02-07 19:57:00,25.9,19.6,30.15,NNW,337,0.0,0.0,77,0.00,,,0.00,open2300-1.11,2013-02-08 01:57:00,
2013-02-07 20:07:00,25.9,19.6,30.15,NNW,337,0.0,0.0,77,0.00,,,0.00,open2300-1.11,2013-02-08 02:07:00,
2013-02-07 20:17:00,25.9,19.6,30.16,NNW,337,0.0,0.0,77,0.00,,,0.00,open2300-1.11,2013-02-08 02:17:00,
2013-02-07 20:27:00,25.9,19.6,30.16,NNW,337,0.0,0.0,77,0.00,,,0.00,open2300-1.11,2013-02-08 02:27:00,
2013-02-07 20:37:00,25.9,19.6,30.16,NNW,337,0.0,0.0,77,0.00,,,0.00,open2300-1.11,2013-02-08 02:37:00,
2013-02-07 20:47:00,25.9,19.6,30.16,NNW,337,0.0,0.0,77,0.00,,,0.00,open2300-1.11,2013-02-08 02:47:00,
2013-02-07 20:57:00,25.9,19.6,30.17,NNW,337,0.0,0.0,77,0.00,,,0.00,open2300-1.11,2013-02-08 02:57:00,
2013-02-07 21:07:00,25.9,19.6,30.17,NNW,337,0.0,0.0,77,0.00,,,0.00,open2300-1.11,2013-02-08 03:07:00,
2013-02-07 21:17:00,25.7,19.4,30.17,NNW,337,0.0,0.0,77,0.00,,,0.00,open2300-1.11,2013-02-08 03:17:00,
2013-02-07 21:27:00,25.9,19.6,30.17,NNW,337,0.0,0.0,77,0.00,,,0.00,open2300-1.11,2013-02-08 03:27:00,
2013-02-07 21:37:00,25.9,19.6,30.18,NNW,337,0.0,0.0,77,0.00,,,0.00,open2300-1.11,2013-02-08 03:37:00,
2013-02-07 21:47:00,26.1,19.5,30.18,NNW,337,0.0,0.0,76,0.00,,,0.00,open2300-1.11,2013-02-08 03:47:00,
2013-02-07 21:52:00,26.1,19.5,30.18,NNW,337,14.1,114.1,76,0.00,,,0.00,open2300-1.11,2013-02-08 03:52:00,
2013-02-07 22:07:00,26.1,19.5,30.18,NNW,337,0.0,0.0,76,0.00,,,0.00,open2300-1.11,2013-02-08 04:07:00,
2013-02-07 22:17:00,26.2,19.6,30.19,NNW,337,0.0,0.0,76,0.00,,,0.00,open2300-1.11,2013-02-08 04:17:00,
2013-02-07 22:28:00,26.2,19.6,30.18,NNW,337,0.0,0.0,76,0.00,,,0.00,open2300-1.11,2013-02-08 04:28:00,
2013-02-07 22:37:00,26.2,19.6,30.19,NNW,337,0.0,0.0,76,0.00,,,0.00,open2300-1.11,2013-02-08 04:37:00,
2013-02-07 22:47:00,26.2,19.6,30.20,NNW,337,0.0,0.0,76,0.00,,,0.00,open2300-1.11,2013-02-08 04:47:00,
2013-02-07 22:57:00,177.4,99.9,30.20,NNW,337,0.0,0.0,100,0.00,,,0.00,open2300-1.11,2013-02-08 04:57:00,
2013-02-07 23:07:00,177.4,99.9,30.20,NNW,337,0.0,0.0,100,0.00,,,0.00,open2300-1.11,2013-02-08 05:07:00,
2013-02-07 23:17:00,26.2,19.6,30.21,NNW,337,0.0,0.0,76,0.00,,,0.00,open2300-1.11,2013-02-08 05:17:00,
2013-02-07 23:27:00,26.2,19.6,30.22,NNW,337,0.0,0.0,76,0.00,,,0.00,open2300-1.11,2013-02-08 05:27:00,
2013-02-07 23:37:00,26.1,19.5,30.23,NNW,337,0.0,0.0,76,0.00,,,0.00,open2300-1.11,2013-02-08 05:37:00,
2013-02-07 23:47:00,26.1,19.5,30.23,NNW,337,0.0,0.0,76,0.00,,,0.00,open2300-1.11,2013-02-08 05:47:00,
2013-02-07 23:57:00,25.9,19.3,30.22,NNW,337,0.0,0.0,76,0.00,,,0.00,open2300-1.11,2013-02-08 05:57:00,